Time;durP1;ratioP1;P1;durP2;ratioP2;P2;SDS_P1;SDS_P2;PMS_P1;PMS_P2;Temp;Humidity;BMP_temperature;BMP_pressure;BME280_temperature;BME280_humidity;BME280_pressure;Samples;Min_cycle;Max_cycle;Signal;HPM_P1;HPM_P2
2023/07/19 00:00:24;;;;;;;7.78;4.05;;;17.40;99.90;;;;;;5078393;28;20457;-59
2023/07/19 00:02:50;;;;;;;7.57;4.28;;;17.40;99.90;;;;;;5079385;28;20133;-59
2023/07/19 00:05:15;;;;;;;7.13;4.05;;;17.50;99.90;;;;;;5077677;28;20043;-58
2023/07/19 00:07:41;;;;;;;8.30;4.63;;;17.40;99.90;;;;;;5078697;28;20041;-59
2023/07/19 00:10:07;;;;;;;7.20;4.20;;;17.50;99.90;;;;;;5078702;28;20041;-58
2023/07/19 00:12:33;;;;;;;8.35;4.25;;;17.40;99.90;;;;;;5078330;28;20047;-59
2023/07/19 00:14:58;;;;;;;7.20;4.00;;;17.40;99.90;;;;;;5079024;28;20072;-59
2023/07/19 00:17:25;;;;;;;8.32;4.18;;;17.40;99.90;;;;;;5077771;28;20044;-59
2023/07/19 00:19:51;;;;;;;8.68;4.25;;;17.40;99.90;;;;;;5078837;28;20040;-59
2023/07/19 00:22:16;;;;;;;6.93;4.22;;;17.40;99.90;;;;;;5077529;28;20055;-59
2023/07/19 00:24:42;;;;;;;9.32;4.85;;;17.40;99.90;;;;;;5078896;28;20048;-59
2023/07/19 00:27:07;;;;;;;7.28;4.20;;;17.40;99.90;;;;;;5077909;28;20048;-59
2023/07/19 00:29:33;;;;;;;7.38;3.75;;;17.40;99.90;;;;;;5078359;28;20040;-59
2023/07/19 00:31:59;;;;;;;7.63;4.03;;;17.40;99.90;;;;;;5078817;28;20076;-59
2023/07/19 00:34:24;;;;;;;7.65;4.72;;;17.30;99.90;;;;;;5077710;28;20043;-59
2023/07/19 00:36:50;;;;;;;7.18;3.85;;;17.20;99.90;;;;;;5078418;28;20434;-59
2023/07/19 00:39:16;;;;;;;6.97;3.90;;;17.20;99.90;;;;;;5077098;28;20130;-59
2023/07/19 00:41:41;;;;;;;8.13;4.15;;;17.20;99.90;;;;;;5078925;28;20040;-59
2023/07/19 00:44:07;;;;;;;6.90;4.03;;;17.20;99.90;;;;;;5076342;28;20403;-59
2023/07/19 00:46:34;;;;;;;7.68;3.97;;;17.30;99.90;;;;;;5078276;28;20047;-59
2023/07/19 00:48:59;;;;;;;7.85;4.30;;;17.30;99.90;;;;;;5077612;28;20029;-60
2023/07/19 00:51:25;;;;;;;9.35;4.07;;;17.30;99.90;;;;;;5077616;28;20119;-59
2023/07/19 00:53:52;;;;;;;9.68;4.88;;;17.30;99.90;;;;;;5078307;28;20102;-59
2023/07/19 00:56:20;;;;;;;7.70;4.47;;;17.30;99.90;;;;;;5073821;28;20040;-59
2023/07/19 00:58:46;;;;;;;7.97;4.80;;;17.30;99.90;;;;;;5064250;28;20037;-59
2023/07/19 01:01:12;;;;;;;8.02;5.10;;;17.20;99.90;;;;;;5069439;28;20065;-59
2023/07/19 01:03:37;;;;;;;8.88;5.20;;;17.30;99.90;;;;;;5057661;28;20044;-59
2023/07/19 01:06:03;;;;;;;10.25;5.88;;;17.20;99.90;;;;;;5058105;28;20045;-59
2023/07/19 01:08:29;;;;;;;10.82;5.18;;;17.20;99.90;;;;;;5057122;28;20107;-58
2023/07/19 01:10:55;;;;;;;9.73;5.68;;;17.20;99.90;;;;;;5058320;28;20052;-59
2023/07/19 01:13:21;;;;;;;9.77;6.05;;;17.20;99.90;;;;;;5056791;28;20041;-59
2023/07/19 01:15:47;;;;;;;8.25;5.63;;;17.20;99.90;;;;;;5058316;28;20045;-59
2023/07/19 01:18:13;;;;;;;10.55;5.38;;;17.20;99.90;;;;;;5056703;28;20095;-58
2023/07/19 01:20:39;;;;;;;8.40;5.50;;;17.20;99.90;;;;;;5058119;28;20771;-59
2023/07/19 01:23:05;;;;;;;10.23;5.80;;;17.20;99.90;;;;;;5057670;28;20133;-59
2023/07/19 01:25:31;;;;;;;9.45;5.75;;;17.20;99.90;;;;;;5057227;28;20240;-59
2023/07/19 01:27:57;;;;;;;9.07;5.20;;;17.20;99.90;;;;;;5056447;28;20049;-59
2023/07/19 01:30:23;;;;;;;7.63;4.70;;;17.20;99.90;;;;;;5056603;28;20060;-59
2023/07/19 01:32:49;;;;;;;8.63;4.65;;;17.20;99.90;;;;;;5057873;28;20064;-59
2023/07/19 01:35:15;;;;;;;8.15;4.75;;;17.20;99.90;;;;;;5056663;28;20040;-60
2023/07/19 01:37:40;;;;;;;9.70;4.30;;;17.10;99.90;;;;;;5057750;28;20448;-59
2023/07/19 01:40:07;;;;;;;8.15;4.40;;;17.20;99.90;;;;;;5057443;28;20037;-60
2023/07/19 01:42:32;;;;;;;7.63;4.32;;;17.20;99.90;;;;;;5057080;28;20517;-59
2023/07/19 01:45:01;;;;;;;9.20;4.70;;;17.20;99.90;;;;;;5056377;28;20064;-59
2023/07/19 01:47:27;;;;;;;7.60;4.32;;;17.20;99.90;;;;;;5056722;28;20129;-59
2023/07/19 01:49:53;;;;;;;7.80;4.80;;;17.10;99.90;;;;;;5057977;28;20061;-60
2023/07/19 01:52:19;;;;;;;7.88;4.13;;;17.10;99.90;;;;;;5056388;28;20049;-59
2023/07/19 01:54:44;;;;;;;9.30;4.75;;;17.10;99.90;;;;;;5076825;28;20044;-60
2023/07/19 01:57:11;;;;;;;7.82;4.18;;;17.10;99.90;;;;;;5077173;28;20048;-59
2023/07/19 01:59:37;;;;;;;6.88;3.97;;;17.10;99.90;;;;;;5076977;28;20071;-59
2023/07/19 02:02:03;;;;;;;7.18;4.22;;;17.10;99.90;;;;;;5080917;28;20040;-59
2023/07/19 02:04:29;;;;;;;7.38;4.30;;;17.10;99.90;;;;;;5080499;28;20075;-59
2023/07/19 02:06:55;;;;;;;9.20;4.22;;;17.10;99.90;;;;;;5081284;28;20104;-59
2023/07/19 02:09:21;;;;;;;7.13;4.00;;;17.00;99.90;;;;;;5080036;28;20044;-59
2023/07/19 02:11:47;;;;;;;7.43;3.88;;;17.00;99.90;;;;;;5081378;28;20047;-60
2023/07/19 02:14:12;;;;;;;8.55;3.80;;;16.70;99.90;;;;;;5080595;28;20052;-60
2023/07/19 02:16:38;;;;;;;8.77;4.22;;;16.70;99.90;;;;;;5080707;28;20421;-61
2023/07/19 02:19:06;;;;;;;8.23;3.80;;;16.60;99.90;;;;;;5081215;28;20502;-59
2023/07/19 02:21:32;;;;;;;8.98;4.70;;;16.60;99.90;;;;;;5080352;28;20049;-59
2023/07/19 02:23:57;;;;;;;8.52;4.70;;;16.40;99.90;;;;;;5081229;28;20063;-58
2023/07/19 02:26:24;;;;;;;8.63;5.43;;;16.40;99.90;;;;;;5079459;28;20057;-59
2023/07/19 02:28:50;;;;;;;9.63;5.53;;;16.30;99.90;;;;;;5081142;28;20100;-59
2023/07/19 02:31:16;;;;;;;9.52;6.05;;;16.40;99.90;;;;;;5080128;28;20056;-55
2023/07/19 02:33:41;;;;;;;11.27;7.13;;;16.40;99.90;;;;;;5080889;28;20048;-59
2023/07/19 02:36:11;;;;;;;10.00;6.90;;;16.30;99.90;;;;;;5080622;28;20463;-58
2023/07/19 02:38:37;;;;;;;9.00;6.43;;;16.20;99.90;;;;;;5079831;28;20036;-59
2023/07/19 02:41:03;;;;;;;9.55;6.45;;;16.30;99.90;;;;;;5081029;28;20064;-59
2023/07/19 02:43:29;;;;;;;10.57;6.75;;;16.40;99.90;;;;;;5078059;28;20049;-59
2023/07/19 02:45:55;;;;;;;9.50;6.47;;;16.40;99.90;;;;;;5080658;28;20132;-59
2023/07/19 02:48:21;;;;;;;9.55;6.38;;;16.40;99.90;;;;;;5079789;28;20044;-58
2023/07/19 02:50:48;;;;;;;9.52;6.35;;;16.50;99.90;;;;;;5078983;28;20040;-58
2023/07/19 02:53:14;;;;;;;9.30;6.22;;;16.50;99.90;;;;;;5080349;28;20043;-59
2023/07/19 02:55:43;;;;;;;12.05;6.25;;;16.50;99.90;;;;;;5079437;28;20052;-58
2023/07/19 02:58:09;;;;;;;9.50;6.20;;;16.50;99.90;;;;;;5080280;28;20103;-59
2023/07/19 03:00:39;;;;;;;10.02;6.03;;;16.50;99.90;;;;;;5079198;28;20524;-59
2023/07/19 03:03:05;;;;;;;10.30;5.88;;;16.50;99.90;;;;;;5080789;28;20044;-59
2023/07/19 03:05:31;;;;;;;9.50;6.18;;;16.60;99.90;;;;;;5079678;28;20087;-58
2023/07/19 03:07:56;;;;;;;9.88;6.35;;;16.60;99.90;;;;;;5078592;28;20074;-59
2023/07/19 03:10:22;;;;;;;11.32;6.45;;;16.40;99.90;;;;;;5079940;28;20033;-59
2023/07/19 03:12:48;;;;;;;9.50;5.93;;;16.50;99.90;;;;;;5078784;28;20092;-58
2023/07/19 03:15:13;;;;;;;9.25;5.88;;;16.60;99.90;;;;;;5079990;28;20095;-58
2023/07/19 03:17:39;;;;;;;9.73;6.53;;;16.60;99.90;;;;;;5078943;28;20055;-58
2023/07/19 03:20:06;;;;;;;8.10;5.90;;;16.60;99.90;;;;;;5080186;28;20080;-59
2023/07/19 03:22:32;;;;;;;10.38;5.85;;;16.60;99.90;;;;;;5079216;28;20132;-59
2023/07/19 03:24:57;;;;;;;11.00;6.55;;;16.60;99.90;;;;;;5078416;28;20508;-59
2023/07/19 03:27:23;;;;;;;9.25;6.38;;;16.60;99.90;;;;;;5079397;28;20088;-59
2023/07/19 03:29:49;;;;;;;10.02;6.28;;;16.50;99.90;;;;;;5079144;28;20051;-59
2023/07/19 03:32:15;;;;;;;10.60;7.07;;;16.60;99.90;;;;;;5080077;28;20045;-59
2023/07/19 03:34:40;;;;;;;8.82;6.53;;;16.60;99.90;;;;;;5077210;28;20082;-59
2023/07/19 03:37:06;;;;;;;10.52;6.60;;;16.60;99.90;;;;;;5079651;28;20044;-59
2023/07/19 03:39:32;;;;;;;11.48;7.20;;;16.60;99.90;;;;;;5078525;28;20051;-59
2023/07/19 03:41:57;;;;;;;11.48;7.07;;;16.60;99.90;;;;;;5078087;28;20039;-59
2023/07/19 03:44:23;;;;;;;10.40;7.43;;;16.50;99.90;;;;;;5079467;28;20051;-59
2023/07/19 03:46:49;;;;;;;12.63;7.05;;;16.50;99.90;;;;;;5078795;28;20087;-59
2023/07/19 03:49:14;;;;;;;11.13;7.18;;;16.50;99.90;;;;;;5061628;28;20055;-59
2023/07/19 03:51:40;;;;;;;11.32;6.95;;;16.40;99.90;;;;;;5078321;28;20040;-59
2023/07/19 03:54:06;;;;;;;11.05;6.88;;;16.50;99.90;;;;;;5079714;28;20048;-59
2023/07/19 03:56:31;;;;;;;9.80;6.45;;;16.50;99.90;;;;;;5077778;28;20048;-59
2023/07/19 03:58:57;;;;;;;10.38;7.35;;;16.40;99.90;;;;;;5079161;28;20037;-59
2023/07/19 04:01:22;;;;;;;9.90;7.18;;;16.30;99.90;;;;;;5078579;28;20067;-59
2023/07/19 04:03:48;;;;;;;11.27;7.65;;;16.40;99.90;;;;;;5078673;28;20045;-59
2023/07/19 04:06:14;;;;;;;10.77;7.63;;;16.30;99.90;;;;;;5077639;28;20056;-59
2023/07/19 04:08:39;;;;;;;11.45;7.65;;;16.40;99.90;;;;;;5077421;28;20043;-60
2023/07/19 04:11:05;;;;;;;11.15;7.72;;;16.40;99.90;;;;;;5079045;28;20090;-59
2023/07/19 04:13:31;;;;;;;12.77;7.72;;;16.30;99.90;;;;;;5077645;28;20052;-59
2023/07/19 04:15:57;;;;;;;9.68;7.22;;;16.30;99.90;;;;;;5078941;28;20044;-59
2023/07/19 04:18:23;;;;;;;10.50;7.18;;;16.40;99.90;;;;;;5078296;28;20047;-59
2023/07/19 04:20:58;;;;;;;11.02;7.13;;;16.40;99.90;;;;;;5078570;28;20041;-59
2023/07/19 04:23:25;;;;;;;10.55;7.07;;;16.40;99.90;;;;;;5078441;28;20072;-59
2023/07/19 04:25:51;;;;;;;10.25;7.65;;;16.40;99.90;;;;;;5077190;28;20818;-59
2023/07/19 04:28:17;;;;;;;11.75;7.68;;;16.30;99.90;;;;;;5078720;28;20080;-58
2023/07/19 04:30:44;;;;;;;11.18;7.63;;;16.30;99.90;;;;;;5076076;28;20044;-59
2023/07/19 04:33:10;;;;;;;12.30;7.65;;;16.20;99.90;;;;;;5078861;28;20047;-59
2023/07/19 04:35:36;;;;;;;12.07;7.93;;;16.20;99.90;;;;;;5077995;28;20342;-59
2023/07/19 04:38:03;;;;;;;11.85;7.50;;;16.10;99.90;;;;;;5077832;28;20044;-58
2023/07/19 04:40:32;;;;;;;12.93;7.60;;;16.10;99.90;;;;;;5078310;28;20059;-60
2023/07/19 04:42:59;;;;;;;12.32;7.63;;;16.20;99.90;;;;;;5077394;28;20051;-60
2023/07/19 04:45:25;;;;;;;10.52;7.75;;;16.20;99.90;;;;;;5078796;28;20442;-59
2023/07/19 04:47:51;;;;;;;10.15;7.15;;;16.10;99.90;;;;;;5075782;28;20044;-58
2023/07/19 04:50:17;;;;;;;9.75;6.97;;;16.20;99.90;;;;;;5078735;28;20070;-59
2023/07/19 04:52:45;;;;;;;12.77;7.28;;;16.20;99.90;;;;;;5077539;28;20163;-58
2023/07/19 04:55:12;;;;;;;12.90;7.32;;;16.30;99.90;;;;;;5077739;28;20044;-58
2023/07/19 04:57:38;;;;;;;9.90;6.60;;;16.20;99.90;;;;;;5075287;28;20033;-58
2023/07/19 05:00:06;;;;;;;11.75;6.60;;;16.20;99.90;;;;;;5063341;28;20044;-59
2023/07/19 05:02:31;;;;;;;11.00;6.88;;;16.20;99.90;;;;;;5068026;28;20037;-59
2023/07/19 05:04:57;;;;;;;10.35;6.25;;;16.30;99.90;;;;;;5056761;28;20072;-58
2023/07/19 05:07:23;;;;;;;10.27;6.63;;;16.20;99.90;;;;;;5057867;28;20045;-58
2023/07/19 05:09:48;;;;;;;9.57;6.60;;;16.10;99.90;;;;;;5057635;28;20079;-60
2023/07/19 05:12:14;;;;;;;10.40;6.57;;;16.20;99.90;;;;;;5057837;28;20037;-60
2023/07/19 05:14:40;;;;;;;10.57;6.00;;;16.10;99.90;;;;;;5058083;28;20516;-59
2023/07/19 05:17:06;;;;;;;10.20;6.25;;;16.10;99.90;;;;;;5056886;28;20052;-59
2023/07/19 05:19:32;;;;;;;10.02;6.57;;;16.20;99.90;;;;;;5058172;28;20044;-58
2023/07/19 05:21:57;;;;;;;10.90;5.60;;;16.10;99.90;;;;;;5056496;28;20072;-59
2023/07/19 05:24:24;;;;;;;11.93;6.75;;;16.20;99.90;;;;;;5056879;28;20053;-59
2023/07/19 05:26:51;;;;;;;10.95;5.82;;;16.10;99.90;;;;;;5053212;28;20623;-59
2023/07/19 05:29:17;;;;;;;11.55;7.03;;;16.10;99.90;;;;;;5053847;28;20060;-59
2023/07/19 05:31:42;;;;;;;10.25;6.15;;;16.10;99.90;;;;;;5054048;28;20100;-58
2023/07/19 05:34:08;;;;;;;9.68;5.78;;;16.20;99.90;;;;;;5053361;28;20115;-59
2023/07/19 05:36:34;;;;;;;11.70;6.40;;;16.20;99.90;;;;;;5056770;28;20061;-59
2023/07/19 05:39:01;;;;;;;9.90;6.25;;;16.10;99.90;;;;;;5056137;28;20050;-59
2023/07/19 05:41:27;;;;;;;10.20;5.40;;;16.10;99.90;;;;;;5058343;28;20444;-59
2023/07/19 05:43:53;;;;;;;11.05;6.03;;;16.20;99.90;;;;;;5057038;28;20053;-57
2023/07/19 05:46:19;;;;;;;10.23;5.28;;;16.20;99.90;;;;;;5056405;28;20108;-58
2023/07/19 05:48:45;;;;;;;9.60;5.25;;;16.20;99.90;;;;;;5057372;28;20045;-57
2023/07/19 05:51:11;;;;;;;10.43;5.20;;;16.30;99.90;;;;;;5055126;28;20631;-57
2023/07/19 05:53:37;;;;;;;11.25;5.63;;;16.30;99.90;;;;;;5067844;28;20049;-58
2023/07/19 05:56:03;;;;;;;8.80;4.68;;;16.30;99.90;;;;;;5076362;28;20048;-58
2023/07/19 05:58:30;;;;;;;11.07;5.00;;;16.30;99.90;;;;;;5077626;28;20052;-58
2023/07/19 06:00:56;;;;;;;11.15;4.90;;;16.40;99.90;;;;;;5076151;28;20111;-57
2023/07/19 06:03:22;;;;;;;9.45;5.05;;;16.30;99.90;;;;;;5076922;28;20055;-57
2023/07/19 06:05:48;;;;;;;9.93;5.20;;;16.30;99.90;;;;;;5077175;28;20048;-57
2023/07/19 06:08:14;;;;;;;12.38;4.97;;;16.40;99.90;;;;;;5076597;28;20130;-57
2023/07/19 06:10:40;;;;;;;9.60;4.30;;;16.10;99.90;;;;;;5077483;28;20082;-58
2023/07/19 06:13:08;;;;;;;7.70;3.92;;;16.20;99.90;;;;;;5076196;28;20070;-58
2023/07/19 06:15:34;;;;;;;11.57;3.90;;;16.20;99.90;;;;;;5077217;28;20048;-58
2023/07/19 06:18:01;;;;;;;9.80;3.55;;;16.20;99.90;;;;;;5076175;28;20051;-58
2023/07/19 06:20:27;;;;;;;9.52;3.40;;;16.10;99.90;;;;;;5076921;28;20044;-58
2023/07/19 06:22:52;;;;;;;8.13;3.08;;;16.20;99.90;;;;;;5076891;28;20079;-58
2023/07/19 06:25:18;;;;;;;7.93;3.17;;;16.20;99.90;;;;;;5076540;28;20048;-58
2023/07/19 06:27:44;;;;;;;9.20;2.92;;;16.20;99.90;;;;;;5075205;28;20105;-57
2023/07/19 06:30:10;;;;;;;8.07;2.70;;;16.20;99.90;;;;;;5075858;28;20048;-58
2023/07/19 06:32:36;;;;;;;7.70;3.05;;;16.20;99.90;;;;;;5074999;28;20053;-57
2023/07/19 06:35:03;;;;;;;7.40;3.00;;;16.30;99.90;;;;;;5066755;28;20041;-58
2023/07/19 06:37:29;;;;;;;5.57;2.65;;;16.30;99.90;;;;;;5065218;28;20036;-58
2023/07/19 06:39:54;;;;;;;8.55;3.00;;;16.30;99.90;;;;;;5075975;28;20050;-57
2023/07/19 06:42:20;;;;;;;6.05;2.70;;;16.30;99.90;;;;;;5075794;28;20529;-57
2023/07/19 06:44:47;;;;;;;7.13;3.30;;;16.30;99.90;;;;;;5070156;28;20033;-57
2023/07/19 06:47:14;;;;;;;10.57;3.10;;;16.40;99.90;;;;;;5068336;28;20101;-58
2023/07/19 06:49:41;;;;;;;10.50;3.90;;;16.40;99.90;;;;;;5069507;28;20095;-58
2023/07/19 06:52:07;;;;;;;10.40;3.97;;;16.40;99.90;;;;;;5070687;28;20051;-58
2023/07/19 06:54:33;;;;;;;9.60;3.83;;;16.40;99.90;;;;;;5071666;28;20520;-58
2023/07/19 06:56:59;;;;;;;7.57;3.47;;;16.40;99.90;;;;;;5064640;28;20037;-58
2023/07/19 06:59:26;;;;;;;7.75;3.67;;;16.40;99.90;;;;;;5066567;28;20515;-58
2023/07/19 07:01:52;;;;;;;7.30;3.53;;;16.50;99.90;;;;;;5065438;28;20037;-58
2023/07/19 07:04:18;;;;;;;7.80;3.90;;;16.60;99.90;;;;;;5054945;28;20098;-58
2023/07/19 07:06:43;;;;;;;10.10;4.25;;;16.50;99.90;;;;;;5056260;28;20068;-57
2023/07/19 07:09:09;;;;;;;8.35;3.88;;;16.60;99.90;;;;;;5054998;28;20523;-57
2023/07/19 07:11:35;;;;;;;10.55;3.90;;;16.60;99.90;;;;;;5056405;28;20504;-58
2023/07/19 07:14:00;;;;;;;8.60;4.20;;;16.50;99.90;;;;;;5055529;28;20054;-58
2023/07/19 07:16:28;;;;;;;9.05;3.75;;;16.60;99.90;;;;;;5054179;28;20047;-57
2023/07/19 07:18:54;;;;;;;8.07;3.47;;;16.50;99.90;;;;;;5058229;28;20500;-58
2023/07/19 07:21:19;;;;;;;11.75;3.92;;;16.60;99.90;;;;;;5058374;28;20048;-58
2023/07/19 07:23:45;;;;;;;10.00;3.45;;;16.70;99.90;;;;;;5060043;28;20048;-58
2023/07/19 07:26:11;;;;;;;8.70;4.07;;;16.70;99.90;;;;;;5059073;28;20595;-57
2023/07/19 07:28:37;;;;;;;7.78;3.60;;;16.70;99.90;;;;;;5079630;28;20076;-58
2023/07/19 07:31:06;;;;;;;7.63;3.60;;;16.90;99.90;;;;;;5078677;28;20096;-58
2023/07/19 07:33:32;;;;;;;8.43;3.40;;;16.80;99.90;;;;;;5072337;28;20644;-58
2023/07/19 07:35:57;;;;;;;8.32;3.30;;;16.90;99.90;;;;;;5068104;28;20033;-58
2023/07/19 07:38:23;;;;;;;7.15;3.33;;;17.00;99.90;;;;;;5058368;28;20048;-57
2023/07/19 07:40:49;;;;;;;7.47;3.03;;;17.10;99.90;;;;;;5059602;28;20053;-57
2023/07/19 07:43:14;;;;;;;8.00;3.20;;;17.10;99.90;;;;;;5056327;28;20565;-57
2023/07/19 07:45:40;;;;;;;6.60;2.63;;;17.20;99.90;;;;;;5059128;28;20123;-58
2023/07/19 07:48:06;;;;;;;7.97;2.90;;;17.20;99.90;;;;;;5057610;28;20053;-57
2023/07/19 07:50:31;;;;;;;7.70;2.67;;;17.20;99.90;;;;;;5058711;28;20033;-58
2023/07/19 07:52:57;;;;;;;7.85;2.90;;;17.20;99.90;;;;;;5063371;28;20044;-57
2023/07/19 07:55:23;;;;;;;9.00;3.05;;;17.20;99.90;;;;;;5077933;28;20829;-57
2023/07/19 07:57:49;;;;;;;8.10;3.03;;;17.00;99.90;;;;;;5079024;28;20056;-57
2023/07/19 08:00:17;;;;;;;9.23;2.50;;;17.10;99.90;;;;;;5077462;28;20048;-57
2023/07/19 08:02:43;;;;;;;7.43;2.80;;;17.30;99.90;;;;;;5078952;28;20102;-57
2023/07/19 08:05:09;;;;;;;8.13;2.92;;;17.50;99.90;;;;;;5075518;28;20048;-57
2023/07/19 08:07:35;;;;;;;7.75;2.97;;;17.60;99.90;;;;;;5078159;28;20100;-58
2023/07/19 08:10:01;;;;;;;8.75;3.10;;;17.50;99.90;;;;;;5078253;28;20071;-57
2023/07/19 08:12:26;;;;;;;9.85;3.33;;;17.70;99.90;;;;;;5078029;28;20047;-58
2023/07/19 08:14:52;;;;;;;6.25;2.47;;;17.90;99.90;;;;;;5078732;28;20043;-58
2023/07/19 08:17:18;;;;;;;6.88;2.90;;;18.20;99.90;;;;;;5076904;28;20550;-58
2023/07/19 08:19:43;;;;;;;8.27;2.60;;;18.30;99.90;;;;;;5078776;28;20102;-58
2023/07/19 08:22:26;;;;;;;7.13;2.80;;;18.20;99.90;;;;;;5077351;28;20246;-59
2023/07/19 08:24:53;;;;;;;6.72;2.45;;;18.40;99.90;;;;;;5078192;28;20036;-59
2023/07/19 08:27:19;;;;;;;6.68;2.30;;;18.60;99.90;;;;;;5078166;28;20060;-59
2023/07/19 08:29:45;;;;;;;8.75;2.50;;;18.90;99.90;;;;;;5077722;28;20039;-59
2023/07/19 08:32:10;;;;;;;6.38;2.25;;;18.70;99.90;;;;;;5059789;28;20056;-59
2023/07/19 08:34:36;;;;;;;4.90;1.50;;;18.20;99.90;;;;;;5071510;28;20049;-57
2023/07/19 08:37:02;;;;;;;6.28;1.60;;;17.90;99.90;;;;;;5072375;28;20048;-59
2023/07/19 08:39:27;;;;;;;5.07;1.80;;;17.70;99.90;;;;;;5057293;28;20450;-58
2023/07/19 08:41:53;;;;;;;7.88;2.10;;;17.70;99.90;;;;;;5057964;28;20055;-59
2023/07/19 08:44:23;;;;;;;7.53;1.88;;;17.80;99.90;;;;;;5055819;28;20053;-59
2023/07/19 08:46:49;;;;;;;6.93;3.70;;;17.60;99.90;;;;;;5055677;28;20444;-59
2023/07/19 08:49:18;;;;;;;4.82;2.08;;;17.70;99.90;;;;;;5058182;28;20132;-59
2023/07/19 08:51:46;;;;;;;4.18;1.83;;;17.80;99.90;;;;;;5054989;28;20110;-59
2023/07/19 08:54:12;;;;;;;6.05;1.77;;;17.80;99.90;;;;;;5072850;28;20041;-59
2023/07/19 08:56:38;;;;;;;5.78;1.88;;;17.80;99.90;;;;;;5077124;28;20097;-59
2023/07/19 08:59:06;;;;;;;5.25;2.10;;;17.90;99.90;;;;;;5074002;28;20048;-59
2023/07/19 09:01:31;;;;;;;8.20;2.00;;;17.90;99.90;;;;;;5068095;28;20052;-59
2023/07/19 09:03:57;;;;;;;5.30;2.58;;;18.00;99.90;;;;;;5060716;28;20065;-59
2023/07/19 09:06:30;;;;;;;6.55;1.73;;;18.00;99.90;;;;;;5057923;28;20037;-59
2023/07/19 09:08:55;;;;;;;5.45;1.80;;;17.80;99.90;;;;;;5056396;28;20626;-59
2023/07/19 09:11:25;;;;;;;5.45;1.90;;;17.80;99.90;;;;;;5056779;28;20033;-60
2023/07/19 09:13:55;;;;;;;5.63;1.90;;;17.80;99.90;;;;;;5054530;28;20493;-59
2023/07/19 09:16:32;;;;;;;5.63;1.55;;;17.80;99.90;;;;;;5056780;28;20049;-59
2023/07/19 09:19:00;;;;;;;6.85;1.95;;;17.70;99.90;;;;;;5056903;28;20055;-60
2023/07/19 09:21:43;;;;;;;4.57;1.90;;;17.90;99.90;;;;;;5055395;28;20044;-57
2023/07/19 09:24:11;;;;;;;5.03;1.67;;;18.00;99.90;;;;;;5057433;28;20448;-58
2023/07/19 09:26:46;;;;;;;5.50;1.67;;;18.00;99.90;;;;;;5055828;28;20112;-56
2023/07/19 09:29:12;;;;;;;3.80;1.40;;;17.70;99.90;;;;;;5056646;28;20052;-57
2023/07/19 09:32:00;;;;;;;4.75;1.48;;;17.90;99.90;;;;;;5056548;28;20385;-59
2023/07/19 09:34:36;;;;;;;6.97;1.80;;;17.80;99.90;;;;;;5066312;28;20048;-57
2023/07/19 09:37:02;;;;;;;5.45;1.60;;;18.00;99.90;;;;;;5062223;28;20055;-56
2023/07/19 09:39:29;;;;;;;6.80;1.70;;;18.50;99.90;;;;;;5056319;28;20558;-59
2023/07/19 09:41:57;;;;;;;5.57;1.80;;;18.80;99.90;;;;;;5058576;28;20154;-59
2023/07/19 09:44:23;;;;;;;4.75;1.42;;;18.60;99.90;;;;;;5067562;28;20047;-60
2023/07/19 09:46:49;;;;;;;4.07;1.50;;;18.40;99.90;;;;;;5062333;28;20033;-60
2023/07/19 09:49:15;;;;;;;4.38;1.55;;;18.10;99.90;;;;;;5057316;28;20053;-59
2023/07/19 09:51:42;;;;;;;5.10;1.40;;;18.10;99.90;;;;;;5056209;28;20531;-59
2023/07/19 09:54:11;;;;;;;5.13;1.95;;;18.20;99.90;;;;;;5071890;28;20120;-59
2023/07/19 09:56:38;;;;;;;6.80;1.58;;;18.20;99.90;;;;;;5076469;28;20124;-60
2023/07/19 09:59:26;;;;;;;7.38;1.67;;;18.10;99.90;;;;;;5077090;28;20483;-59
2023/07/19 10:01:52;;;;;;;4.90;1.52;;;18.10;99.90;;;;;;5077368;28;20063;-60
2023/07/19 10:04:27;;;;;;;5.68;3.05;;;18.40;99.90;;;;;;5076424;28;20049;-59
2023/07/19 10:07:18;;;;;;;3.80;1.70;;;18.70;99.90;;;;;;5077108;28;20104;-60
2023/07/19 10:09:46;;;;;;;5.40;1.20;;;19.10;99.90;;;;;;5076967;28;20080;-59
2023/07/19 10:12:23;;;;;;;5.90;1.30;;;18.70;99.90;;;;;;5076915;28;20047;-57
2023/07/19 10:15:02;;;;;;;4.68;1.40;;;18.60;99.90;;;;;;5077626;28;20086;-57
2023/07/19 10:17:31;;;;;;;6.53;1.95;;;18.40;99.90;;;;;;5074920;28;20576;-58
2023/07/19 10:20:06;;;;;;;3.53;1.23;;;18.40;99.90;;;;;;5074662;28;20048;-57
2023/07/19 10:22:55;;;;;;;5.70;1.58;;;18.60;99.90;;;;;;5065756;28;20037;-57
2023/07/19 10:25:37;;;;;;;2.00;0.90;;;18.60;99.90;;;;;;5059926;28;20131;-57
2023/07/19 10:28:07;;;;;;;4.63;1.30;;;18.50;99.90;;;;;;5059618;28;20508;-57
2023/07/19 10:30:56;;;;;;;3.90;1.13;;;18.70;99.90;;;;;;5057568;28;20037;-58
2023/07/19 10:33:25;;;;;;;4.57;1.20;;;18.40;99.90;;;;;;5064815;28;20041;-58
2023/07/19 10:35:58;;;;;;;5.00;1.40;;;18.50;99.90;;;;;;5070297;28;20052;-57
2023/07/19 10:38:26;;;;;;;4.28;1.38;;;18.40;99.90;;;;;;5078552;28;20068;-57
2023/07/19 10:41:14;;;;;;;3.88;1.30;;;18.70;99.90;;;;;;5077337;28;20459;-57
2023/07/19 10:43:40;;;;;;;3.88;1.33;;;18.50;99.90;;;;;;5077399;28;20036;-58
2023/07/19 10:46:06;;;;;;;4.70;1.40;;;18.70;99.90;;;;;;5079287;28;20101;-58
2023/07/19 10:48:33;;;;;;;6.25;1.30;;;18.60;99.90;;;;;;5079724;28;20040;-58
2023/07/19 10:51:00;;;;;;;5.07;1.23;;;19.10;99.90;;;;;;5078966;28;20051;-58
2023/07/19 10:53:26;;;;;;;4.03;1.20;;;19.00;99.90;;;;;;5079867;28;20048;-58
2023/07/19 10:55:58;;;;;;;4.65;1.40;;;19.30;99.90;;;;;;5079032;28;20111;-57
2023/07/19 10:58:24;;;;;;;3.90;1.25;;;19.10;99.90;;;;;;5080159;28;20033;-59
2023/07/19 11:00:51;;;;;;;3.15;1.20;;;19.40;99.90;;;;;;5079199;28;20051;-59
2023/07/19 11:03:22;;;;;;;3.95;0.90;;;19.40;99.90;;;;;;5078308;28;20591;-59
2023/07/19 11:05:49;;;;;;;4.25;1.10;;;19.20;99.90;;;;;;5078672;28;20045;-59
2023/07/19 11:08:22;;;;;;;3.92;1.08;;;19.20;99.90;;;;;;5079019;28;20056;-58
2023/07/19 11:10:49;;;;;;;4.28;1.10;;;19.40;99.90;;;;;;5080040;28;20119;-58
2023/07/19 11:13:19;;;;;;;3.95;1.02;;;19.20;99.90;;;;;;5078416;28;20515;-59
2023/07/19 11:15:49;;;;;;;3.97;1.10;;;19.20;99.90;;;;;;5079406;28;20048;-59
2023/07/19 11:18:29;;;;;;;2.75;1.10;;;19.00;99.90;;;;;;5078804;28;20040;-58
2023/07/19 11:20:59;;;;;;;6.18;1.20;;;19.30;99.90;;;;;;5079282;28;20044;-59
2023/07/19 11:23:26;;;;;;;4.38;1.02;;;19.40;99.90;;;;;;5071559;28;20813;-59
2023/07/19 11:26:08;;;;;;;3.42;1.35;;;19.40;99.90;;;;;;5074630;28;20044;-58
2023/07/19 11:28:46;;;;;;;3.65;1.13;;;19.90;99.90;;;;;;5076092;28;20052;-59
2023/07/19 11:31:34;;;;;;;3.15;1.00;;;19.80;99.90;;;;;;5078070;28;20186;-58
2023/07/19 11:34:13;;;;;;;3.08;0.93;;;20.00;99.90;;;;;;5077995;28;20044;-59
2023/07/19 11:36:40;;;;;;;3.65;1.00;;;19.50;99.90;;;;;;5079516;28;20060;-59
2023/07/19 11:39:16;;;;;;;2.97;0.95;;;19.80;99.90;;;;;;5077821;28;20056;-59
2023/07/19 11:41:43;;;;;;;2.40;0.80;;;20.00;99.90;;;;;;5079457;28;20115;-59
2023/07/19 11:44:16;;;;;;;4.95;1.20;;;20.30;99.90;;;;;;5078674;28;20079;-59
2023/07/19 11:46:43;;;;;;;3.35;0.90;;;20.60;99.90;;;;;;5078623;28;20532;-59
2023/07/19 11:49:09;;;;;;;3.63;1.00;;;19.80;99.90;;;;;;5079409;28;20041;-58
2023/07/19 11:51:36;;;;;;;4.50;1.10;;;19.50;99.90;;;;;;5077957;28;20040;-59
2023/07/19 11:54:03;;;;;;;5.10;1.00;;;19.50;99.90;;;;;;5079439;28;20037;-58
2023/07/19 11:56:29;;;;;;;4.97;1.08;;;19.60;99.90;;;;;;5078093;28;20117;-59
2023/07/19 11:58:56;;;;;;;2.45;0.93;;;19.50;99.90;;;;;;5079232;28;20051;-60
2023/07/19 12:01:22;;;;;;;3.67;1.00;;;19.80;99.90;;;;;;5079051;28;20052;-60
2023/07/19 12:03:48;;;;;;;3.03;1.08;;;19.70;99.90;;;;;;5077088;28;20041;-60
2023/07/19 12:06:14;;;;;;;2.85;0.90;;;19.80;99.90;;;;;;5078937;28;20036;-60
2023/07/19 12:08:41;;;;;;;4.45;0.90;;;20.00;99.90;;;;;;5077769;28;20051;-60
2023/07/19 12:11:07;;;;;;;2.55;0.90;;;20.10;99.90;;;;;;5079415;28;20049;-61
2023/07/19 12:13:34;;;;;;;2.42;1.10;;;19.50;99.90;;;;;;5077878;28;20086;-60
2023/07/19 12:16:00;;;;;;;2.47;1.00;;;19.50;99.90;;;;;;5078927;28;20076;-60
2023/07/19 12:18:26;;;;;;;4.78;1.00;;;19.10;99.90;;;;;;5078657;28;20404;-60
2023/07/19 12:20:52;;;;;;;4.32;0.77;;;19.40;99.90;;;;;;5078017;28;20078;-59
2023/07/19 12:23:18;;;;;;;2.00;0.80;;;19.10;99.90;;;;;;5078703;28;20131;-60
2023/07/19 12:25:43;;;;;;;2.58;0.90;;;19.20;99.90;;;;;;5077636;28;20064;-59
2023/07/19 12:28:09;;;;;;;3.13;1.00;;;19.40;99.90;;;;;;5078494;28;20139;-60
2023/07/19 12:30:35;;;;;;;2.75;0.90;;;19.10;99.90;;;;;;5077588;28;20040;-60
2023/07/19 12:33:01;;;;;;;3.25;1.00;;;19.40;99.90;;;;;;5078919;28;20921;-60
2023/07/19 12:35:27;;;;;;;8.25;1.08;;;19.80;99.90;;;;;;5077591;28;20052;-59
2023/07/19 12:37:52;;;;;;;3.45;1.05;;;20.30;99.90;;;;;;5076522;28;20048;-59
2023/07/19 12:40:18;;;;;;;5.38;1.23;;;20.10;99.90;;;;;;5078491;28;20052;-60
2023/07/19 12:42:44;;;;;;;3.33;1.00;;;19.90;99.90;;;;;;5076306;28;20036;-60
2023/07/19 12:45:09;;;;;;;6.55;1.13;;;20.30;99.90;;;;;;5077803;28;20040;-60